Observations for PRESTWICK CIV NAVY, United Kingdom (EGPK)

EGPK 201950Z 20010KT 9999 SCT015 BKN025 11/10 Q1011 
EGPK 201920Z 20009KT 6000 SCT015 BKN025 10/10 Q1010 
EGPK 201850Z 20006KT 6000 SCT015 BKN025 10/10 Q1010 
EGPK 201820Z 20010KT 6000 -RA SCT015 BKN025 10/10 Q1010 
EGPK 201750Z 19011KT 8000 -RA SCT015 BKN025 10/10 Q1009 
EGPK 201720Z 18010KT 8000 -RA SCT015 BKN025 10/10 Q1009 
EGPK 201650Z 18011KT 9999 SCT015 BKN025 11/10 Q1009 
EGPK 201620Z 19013KT 9999 -RA BKN016 11/10 Q1009
EGPK 201550Z 19013KT 9999 BKN016 11/10 Q1009
EGPK 201520Z 19014KT 9999 SCT012 BKN016 11/10 Q1008 
EGPK 201450Z 19015KT 7000 -RA SCT012 BKN016 11/10 Q1008 
EGPK 201420Z 19015KT 9000 -RA SCT012 BKN016 11/10 Q1009 
EGPK 201350Z 20015KT 9000 SCT012 BKN016 11/10 Q1009 
EGPK 201320Z 20016KT 9000 SCT010 BKN014 12/10 Q1008 
EGPK 201250Z 20014KT 9000 SCT010 BKN014 12/10 Q1008 
EGPK 201220Z 20015KT 9000 FEW010 BKN014 12/10 Q1008 
EGPK 201150Z 20016KT 9999 BKN014 12/10 Q1008
EGPK 201120Z 19015KT 9999 BKN014 11/09 Q1008
EGPK 201050Z 19014KT 160V230 9999 BKN016 11/09 Q1008
EGPK 201020Z 17011KT 9999 BKN015 10/09 Q1008
EGPK 200950Z 18014KT 9999 BKN015 10/09 Q1008
EGPK 200920Z 18013KT 9999 BKN015 10/09 Q1007
EGPK 200850Z 19014KT 9999 BKN013 10/09 Q1007
EGPK 200820Z 19015KT 9999 BKN013 10/09 Q1007
EGPK 200750Z 19015KT 9999 BKN012 10/08 Q1007
EGPK 200720Z 19012KT 9999 BKN012 10/09 Q1007
EGPK 200650Z 18012KT 9999 BKN010 10/09 Q1007
EGPK 200620Z 20013KT 9999 BKN017 10/09 Q1006
EGPK 200550Z 19013KT 9999 BKN019 10/09 Q1006
EGPK 200450Z 20010KT 9999 -RA BKN013 10/09 Q1006
EGPK 200350Z 20012KT 9999 -RA BKN015 10/09 Q1006
EGPK 200250Z 19011KT 9999 -RA BKN015 10/09 Q1006
EGPK 200150Z 19011KT 9999 -RA BKN016 09/09 Q1006
EGPK 200050Z 19012KT 9999 -RA BKN020 09/09 Q1006
EGPK 192350Z 19012KT 9999 -RA BKN025 09/08 Q1006
EGPK 192320Z 17011KT 9999 -RA BKN025 09/08 Q1006
EGPK 192250Z 18013KT 9999 -RA BKN028 09/08 Q1006
EGPK 192220Z 18011KT 9999 -RA BKN028 09/08 Q1006
EGPK 192150Z 18011KT 9999 -RA BKN030 09/08 Q1006
EGPK 192120Z 17011KT 9999 -RA BKN030 08/07 Q1006
EGPK 192050Z 17014KT 9999 -RA FEW015 BKN031 08/07 Q1007 
EGPK 192020Z 17015KT 9999 -RA FEW015 BKN031 08/07 Q1007 
EGPK 191950Z 17014KT 9000 -RA BKN023 08/07 Q1007
EGPK 191920Z 16013KT 9000 -RA BKN023 08/06 Q1008